createdAt,value
2022-08-21T00:00:33.206Z,96592.16
2022-08-21T00:03:04.758Z,96596.31
2022-08-21T00:05:32.723Z,96588.88
2022-08-21T00:08:00.894Z,96585.78
2022-08-21T00:10:28.771Z,96585.06
2022-08-21T00:12:58.686Z,96588.34
2022-08-21T00:15:28.260Z,96581.19
2022-08-21T00:17:58.378Z,96584.44
2022-08-21T00:20:27.209Z,96578.34
2022-08-21T00:22:55.540Z,96571.81
2022-08-21T00:25:26.259Z,96579.44
2022-08-21T00:27:54.415Z,96578.13
2022-08-21T00:30:24.921Z,96574.41
2022-08-21T00:32:56.415Z,96569.06
2022-08-21T00:35:25.205Z,96562.59
2022-08-21T00:37:53.243Z,96570.50
2022-08-21T00:40:22.754Z,96558.44
2022-08-21T00:42:53.830Z,96565.28
2022-08-21T00:45:31.833Z,96567.94
2022-08-21T00:48:00.010Z,96566.00
2022-08-21T00:50:28.635Z,96569.41
2022-08-21T00:52:56.734Z,96566.50
2022-08-21T00:55:25.961Z,96562.41
2022-08-21T00:57:54.928Z,96562.81
2022-08-21T01:00:25.521Z,96564.03
2022-08-21T01:02:55.398Z,96560.19
2022-08-21T01:05:23.294Z,96555.16
2022-08-21T01:07:51.357Z,96560.53
2022-08-21T01:10:23.784Z,96561.31
2022-08-21T01:12:52.520Z,96561.75
2022-08-21T01:15:21.000Z,96562.66
2022-08-21T01:17:48.661Z,96565.84
2022-08-21T01:20:18.861Z,96561.69
2022-08-21T01:22:47.936Z,96556.00
2022-08-21T01:25:17.892Z,96563.69
2022-08-21T01:27:45.732Z,96566.38
2022-08-21T01:30:14.733Z,96558.97
2022-08-21T01:32:42.389Z,96562.63
2022-08-21T01:35:11.024Z,96563.94
2022-08-21T01:37:39.369Z,96556.16
2022-08-21T01:40:09.148Z,96556.03
2022-08-21T01:42:37.560Z,96548.00
2022-08-21T01:45:06.862Z,96556.78
2022-08-21T01:47:34.800Z,96556.19
2022-08-21T01:50:02.576Z,96552.59
2022-08-21T01:52:30.744Z,96547.09
2022-08-21T01:54:58.692Z,96544.78
2022-08-21T01:57:29.828Z,96552.47
2022-08-21T02:00:00.383Z,96544.56
2022-08-21T02:02:28.031Z,96543.09
2022-08-21T02:04:56.292Z,96542.31
2022-08-21T02:07:24.318Z,96540.69
2022-08-21T02:09:52.306Z,96543.13
2022-08-21T02:12:21.380Z,96545.88
2022-08-21T02:14:54.750Z,96537.47
2022-08-21T02:17:22.484Z,96543.31
2022-08-21T02:19:50.237Z,96541.13
2022-08-21T02:22:17.901Z,96541.03
2022-08-21T02:24:54.833Z,96533.56
2022-08-21T02:27:26.256Z,96536.16
2022-08-21T02:29:56.410Z,96532.91
2022-08-21T02:32:24.373Z,96522.69
2022-08-21T02:34:52.449Z,96527.69
2022-08-21T02:37:23.981Z,96524.16
2022-08-21T02:39:51.924Z,96520.03
2022-08-21T02:42:19.533Z,96523.38
2022-08-21T02:44:48.620Z,96532.59
2022-08-21T02:47:17.926Z,96530.94
2022-08-21T02:49:48.593Z,96531.19
2022-08-21T02:52:16.600Z,96530.00
2022-08-21T02:54:44.699Z,96527.94
2022-08-21T02:57:12.786Z,96528.81
2022-08-21T02:59:41.962Z,96531.09
2022-08-21T03:02:11.789Z,96533.06
2022-08-21T03:04:46.687Z,96526.69
2022-08-21T03:07:14.702Z,96521.19
2022-08-21T03:09:55.321Z,96578.16
2022-08-21T03:12:23.526Z,96534.63
2022-08-21T03:14:51.513Z,96529.94
2022-08-21T03:17:19.398Z,96524.03
2022-08-21T03:19:58.703Z,96523.47
2022-08-21T03:22:30.806Z,96533.97
2022-08-21T03:24:59.721Z,96517.66
2022-08-21T03:27:28.197Z,96528.22
2022-08-21T03:29:58.372Z,96526.94
2022-08-21T03:32:29.461Z,96523.09
2022-08-21T03:34:58.663Z,96529.00
2022-08-21T03:37:28.394Z,96525.25
2022-08-21T03:39:56.266Z,96528.41
2022-08-21T03:42:24.306Z,96527.38
2022-08-21T03:44:51.989Z,96531.47
2022-08-21T03:47:19.869Z,96526.47
2022-08-21T03:49:47.719Z,96536.69
2022-08-21T03:52:17.096Z,96539.44
2022-08-21T03:54:44.835Z,96541.44
2022-08-21T03:57:12.643Z,96533.41
2022-08-21T03:59:41.103Z,96542.69
2022-08-21T04:02:09.225Z,96544.19
2022-08-21T04:04:37.416Z,96541.91
2022-08-21T04:07:05.754Z,96547.97
2022-08-21T04:09:35.672Z,96542.81
2022-08-21T04:12:04.945Z,96552.91
2022-08-21T04:14:38.529Z,96550.13
2022-08-21T04:17:06.475Z,96557.84
2022-08-21T04:19:34.272Z,96563.78
2022-08-21T04:22:02.063Z,96568.06
2022-08-21T04:24:33.437Z,96567.63
2022-08-21T04:27:05.418Z,96567.66
2022-08-21T04:29:35.170Z,96572.19
2022-08-21T04:32:10.059Z,96570.59
2022-08-21T04:34:39.494Z,96575.78
2022-08-21T04:37:09.867Z,96582.31
2022-08-21T04:39:37.932Z,96577.66
2022-08-21T04:42:08.495Z,96580.47
2022-08-21T04:44:36.474Z,96577.50
2022-08-21T04:47:04.343Z,96579.84
2022-08-21T04:49:32.075Z,96583.94
2022-08-21T04:52:02.942Z,96582.69
2022-08-21T04:54:30.975Z,96577.13
2022-08-21T04:57:00.565Z,96579.69
2022-08-21T04:59:30.663Z,96582.94
2022-08-21T05:01:58.822Z,96580.53
2022-08-21T05:04:27.741Z,96582.50
2022-08-21T05:06:56.013Z,96581.94
2022-08-21T05:09:29.653Z,96591.44
2022-08-21T05:11:57.683Z,96581.19
2022-08-21T05:14:26.068Z,96585.50
2022-08-21T05:17:02.837Z,96589.03
2022-08-21T05:19:30.578Z,96584.09
2022-08-21T05:22:03.405Z,96587.94
2022-08-21T05:24:31.419Z,96582.91
2022-08-21T05:26:59.946Z,96589.06
2022-08-21T05:29:34.726Z,96597.38
2022-08-21T05:32:05.927Z,96596.09
2022-08-21T05:34:36.947Z,96593.00
2022-08-21T05:37:07.631Z,96590.16
2022-08-21T05:40:20.189Z,96596.63
2022-08-21T05:42:24.823Z,96592.72
2022-08-21T05:44:52.491Z,96594.16
2022-08-21T05:47:23.221Z,96599.63
2022-08-21T05:49:52.011Z,96604.22
2022-08-21T05:52:23.104Z,96602.28
2022-08-21T05:54:50.838Z,96606.56
2022-08-21T05:57:20.385Z,96600.63
2022-08-21T05:59:48.273Z,96595.78
2022-08-21T06:02:16.100Z,96595.47
2022-08-21T06:04:45.278Z,96601.97
2022-08-21T06:07:13.220Z,96597.50
2022-08-21T06:09:40.915Z,96597.88
2022-08-21T06:12:09.354Z,96598.34
2022-08-21T06:14:41.106Z,96601.00
2022-08-21T06:17:12.873Z,96605.28
2022-08-21T06:19:40.984Z,96602.94
2022-08-21T06:22:10.788Z,96598.97
2022-08-21T06:24:39.579Z,96607.97
2022-08-21T06:27:08.515Z,96610.06
2022-08-21T06:29:44.497Z,96603.97
2022-08-21T06:32:12.777Z,96596.19
2022-08-21T06:34:40.753Z,96598.19
2022-08-21T06:37:08.566Z,96602.22
2022-08-21T06:39:40.903Z,96597.81
2022-08-21T06:42:15.382Z,96594.81
2022-08-21T06:44:43.455Z,96594.69
2022-08-21T06:47:11.483Z,96592.03
2022-08-21T06:49:41.029Z,96591.09
2022-08-21T06:52:10.945Z,96584.91
2022-08-21T06:54:46.339Z,96583.78
2022-08-21T06:57:14.564Z,96579.94
2022-08-21T06:59:42.549Z,96587.72
2022-08-21T07:02:12.237Z,96580.31
2022-08-21T07:04:39.900Z,96595.63
2022-08-21T07:07:09.883Z,96585.28
2022-08-21T07:09:37.481Z,96580.75
2022-08-21T07:12:08.631Z,96576.78
2022-08-21T07:14:36.286Z,96573.88
2022-08-21T07:17:04.308Z,96580.25
2022-08-21T07:19:32.273Z,96579.25
2022-08-21T07:22:00.981Z,96571.19
2022-08-21T07:24:28.582Z,96567.91
2022-08-21T07:26:56.582Z,96576.19
2022-08-21T07:29:25.594Z,96563.88
2022-08-21T07:31:53.393Z,96577.78
2022-08-21T07:34:21.066Z,96568.31
2022-08-21T07:36:48.987Z,96568.31
2022-08-21T07:39:17.117Z,96571.88
2022-08-21T07:41:44.828Z,96575.34
2022-08-21T07:44:14.825Z,96570.38
2022-08-21T07:46:44.074Z,96569.47
2022-08-21T07:49:12.106Z,96558.44
2022-08-21T07:51:40.163Z,96560.66
2022-08-21T07:54:09.636Z,96562.16
2022-08-21T07:56:43.262Z,96559.94
2022-08-21T07:59:11.289Z,96564.94
2022-08-21T08:01:39.577Z,96559.59
2022-08-21T08:04:09.061Z,96560.22
2022-08-21T08:06:36.721Z,96556.41
2022-08-21T08:09:04.812Z,96553.81
2022-08-21T08:11:32.592Z,96555.06
2022-08-21T08:14:00.557Z,96555.72
2022-08-21T08:16:30.358Z,96559.56
2022-08-21T08:18:59.002Z,96550.47
2022-08-21T08:21:28.974Z,96551.34
2022-08-21T08:24:00.128Z,96547.06
2022-08-21T08:26:46.708Z,96540.56
2022-08-21T08:29:21.623Z,96539.59
2022-08-21T08:31:49.276Z,96541.25
2022-08-21T08:34:23.586Z,96540.63
2022-08-21T08:36:58.870Z,96539.84
2022-08-21T08:39:29.650Z,96532.97
2022-08-21T08:41:59.145Z,96537.41
2022-08-21T08:44:30.380Z,96525.97
2022-08-21T08:46:58.253Z,96526.84
2022-08-21T08:49:26.869Z,96523.19
2022-08-21T08:51:57.176Z,96522.78
2022-08-21T08:54:27.873Z,96521.63
2022-08-21T08:57:01.481Z,96515.22
2022-08-21T08:59:43.800Z,96511.88
2022-08-21T09:02:16.782Z,96515.84
2022-08-21T09:04:46.991Z,96515.91
2022-08-21T09:07:20.122Z,96513.69
2022-08-21T09:09:54.291Z,96522.22
2022-08-21T09:12:31.050Z,96512.16
2022-08-21T09:15:01.078Z,96510.81
2022-08-21T09:17:33.380Z,96502.47
2022-08-21T09:20:03.893Z,96502.22
2022-08-21T09:22:37.371Z,96504.94
2022-08-21T09:25:08.956Z,96493.16
2022-08-21T09:27:37.646Z,96489.31
2022-08-21T09:30:08.709Z,96488.63
2022-08-21T09:32:38.171Z,96495.81
2022-08-21T09:35:07.401Z,96489.72
2022-08-21T09:37:48.463Z,96487.38
2022-08-21T09:40:31.414Z,96491.88
2022-08-21T09:43:00.391Z,96480.13
2022-08-21T09:45:28.458Z,96490.84
2022-08-21T09:48:10.234Z,96493.53
2022-08-21T09:50:38.141Z,96495.47
2022-08-21T09:53:07.201Z,96482.13
2022-08-21T09:55:52.971Z,96479.16
2022-08-21T09:58:20.997Z,96481.56
2022-08-21T10:00:50.405Z,96298.84
2022-08-21T10:03:21.547Z,96483.50
2022-08-21T10:05:53.380Z,96478.03
2022-08-21T10:08:24.861Z,96474.56
2022-08-21T10:10:56.369Z,96472.34
2022-08-21T10:13:26.819Z,96468.44
2022-08-21T10:15:59.570Z,96474.34
2022-08-21T10:18:28.700Z,96307.94
2022-08-21T10:20:58.496Z,96468.50
2022-08-21T10:23:31.999Z,96470.06
2022-08-21T10:26:13.134Z,96462.31
2022-08-21T10:28:45.637Z,96459.78
2022-08-21T10:31:15.044Z,96456.75
2022-08-21T10:33:45.214Z,96253.34
2022-08-21T10:36:15.064Z,96444.50
2022-08-21T10:39:17.821Z,96451.41
2022-08-21T10:41:50.874Z,96447.28
2022-08-21T10:44:23.124Z,96447.16
2022-08-21T10:46:55.383Z,96447.16
2022-08-21T10:49:25.194Z,96437.97
2022-08-21T10:51:55.534Z,96442.47
2022-08-21T10:54:25.923Z,96442.44
2022-08-21T10:56:56.928Z,96439.00
2022-08-21T10:59:28.858Z,96434.78
2022-08-21T11:01:57.519Z,96431.38
2022-08-21T11:04:29.920Z,96432.44
2022-08-21T11:07:09.319Z,96432.03
2022-08-21T11:09:48.921Z,96432.38
2022-08-21T11:12:20.234Z,96425.66
2022-08-21T11:14:50.774Z,96422.28
2022-08-21T11:17:21.986Z,96425.69
2022-08-21T11:19:51.006Z,96423.88
2022-08-21T11:22:22.754Z,96418.72
2022-08-21T11:24:52.564Z,96419.72
2022-08-21T11:27:23.719Z,96418.53
2022-08-21T11:29:53.114Z,96421.75
2022-08-21T11:32:29.597Z,96419.09
2022-08-21T11:35:00.521Z,96419.81
2022-08-21T11:37:32.352Z,96417.97
2022-08-21T11:40:02.750Z,96416.41
2022-08-21T11:42:32.589Z,96412.69
2022-08-21T11:45:03.987Z,96412.22
2022-08-21T11:47:34.605Z,96413.56
2022-08-21T11:50:05.525Z,96411.22
2022-08-21T11:52:53.824Z,96404.38
2022-08-21T11:55:23.752Z,96221.19
2022-08-21T11:57:54.524Z,96409.06
2022-08-21T12:00:23.316Z,96406.72
2022-08-21T12:02:55.354Z,96405.19
2022-08-21T12:05:27.868Z,96403.44
2022-08-21T12:08:04.642Z,96403.50
2022-08-21T12:10:36.312Z,96405.28
2022-08-21T12:13:14.674Z,96408.22
2022-08-21T12:15:42.686Z,96403.38
2022-08-21T12:18:22.385Z,96397.78
2022-08-21T12:20:59.227Z,96395.41
2022-08-21T12:23:28.560Z,96391.34
2022-08-21T12:26:03.633Z,96393.91
2022-08-21T12:28:32.958Z,96386.41
2022-08-21T12:31:00.687Z,96375.16
2022-08-21T12:33:29.054Z,96377.31
2022-08-21T12:36:07.186Z,96374.66
2022-08-21T12:38:37.391Z,96366.28
2022-08-21T12:41:06.279Z,96376.34
2022-08-21T12:43:38.008Z,96366.59
2022-08-21T12:46:05.936Z,96365.09
2022-08-21T12:48:34.311Z,96369.00
2022-08-21T12:51:07.780Z,96366.38
2022-08-21T12:53:35.951Z,96363.63
2022-08-21T12:56:05.802Z,96363.69
2022-08-21T12:58:33.705Z,96372.41
2022-08-21T13:01:07.315Z,96369.16
2022-08-21T13:03:36.387Z,96366.84
2022-08-21T13:06:05.477Z,96361.28
2022-08-21T13:08:37.514Z,96369.13
2022-08-21T13:11:11.344Z,96366.34
2022-08-21T13:13:44.740Z,96359.97
2022-08-21T13:16:24.789Z,96366.53
2022-08-21T13:18:58.403Z,96367.09
2022-08-21T13:21:29.679Z,96368.94
2022-08-21T13:24:38.728Z,96360.31
2022-08-21T13:26:59.387Z,96362.19
2022-08-21T13:29:30.146Z,96357.50
2022-08-21T13:32:01.292Z,96361.84
2022-08-21T13:34:31.362Z,96358.47
2022-08-21T13:37:00.542Z,96358.59
2022-08-21T13:39:28.266Z,96353.69
2022-08-21T13:41:57.236Z,96345.81
2022-08-21T13:44:27.584Z,96346.47
2022-08-21T13:46:55.599Z,96339.84
2022-08-21T13:49:25.764Z,96340.69
2022-08-21T13:51:53.718Z,96341.09
2022-08-21T13:54:24.868Z,96344.97
2022-08-21T13:56:54.511Z,96340.16
2022-08-21T13:59:26.019Z,96358.28
2022-08-21T14:02:00.018Z,96353.44
2022-08-21T14:04:37.119Z,96345.28
2022-08-21T14:07:05.411Z,96352.00
2022-08-21T14:09:34.409Z,96345.91
2022-08-21T14:12:03.203Z,96342.13
2022-08-21T14:14:31.878Z,96346.94
2022-08-21T14:17:00.540Z,96346.03
2022-08-21T14:19:39.313Z,96339.53
2022-08-21T14:22:30.501Z,96345.66
2022-08-21T14:25:02.664Z,96342.94
2022-08-21T14:27:34.968Z,96342.34
2022-08-21T14:30:12.186Z,96340.53
2022-08-21T14:32:51.263Z,96338.59
2022-08-21T14:35:23.611Z,96342.72
2022-08-21T14:37:52.727Z,96331.50
2022-08-21T14:40:20.779Z,96329.53
2022-08-21T14:42:53.714Z,96331.81
2022-08-21T14:45:28.006Z,96326.22
2022-08-21T14:47:55.783Z,96334.91
2022-08-21T14:50:28.098Z,96320.97
2022-08-21T14:52:56.182Z,96319.69
2022-08-21T14:55:24.021Z,96329.25
2022-08-21T14:57:52.402Z,96314.34
2022-08-21T15:00:21.862Z,96324.44
2022-08-21T15:02:49.580Z,96311.22
2022-08-21T15:05:31.459Z,96309.59
2022-08-21T15:08:02.398Z,96310.00
2022-08-21T15:10:30.127Z,96310.66
2022-08-21T15:12:57.797Z,96305.63
2022-08-21T15:15:25.534Z,96306.66
2022-08-21T15:17:54.428Z,96304.91
2022-08-21T15:20:22.042Z,96298.47
2022-08-21T15:22:49.939Z,96304.78
2022-08-21T15:25:22.333Z,96304.38
2022-08-21T15:27:50.014Z,96299.38
2022-08-21T15:30:17.655Z,96295.78
2022-08-21T15:32:45.290Z,96291.22
2022-08-21T15:35:12.929Z,96288.31
2022-08-21T15:37:43.528Z,96289.31
2022-08-21T15:40:14.394Z,96292.66
2022-08-21T15:42:43.785Z,96291.44
2022-08-21T15:45:12.085Z,96287.84
2022-08-21T15:47:40.475Z,96277.78
2022-08-21T15:50:10.601Z,96279.88
2022-08-21T15:52:38.305Z,96284.81
2022-08-21T15:55:06.427Z,96288.38
2022-08-21T15:57:34.074Z,96280.78
2022-08-21T16:00:13.920Z,96304.38
2022-08-21T16:02:41.849Z,96277.16
2022-08-21T16:05:11.427Z,96271.19
2022-08-21T16:07:40.094Z,96277.66
2022-08-21T16:10:10.529Z,96275.31
2022-08-21T16:12:39.235Z,96278.16
2022-08-21T16:15:12.078Z,96269.94
2022-08-21T16:17:59.896Z,96276.19
2022-08-21T16:20:28.522Z,96272.06
2022-08-21T16:22:56.723Z,96272.28
2022-08-21T16:25:24.494Z,96265.66
2022-08-21T16:27:57.294Z,96268.03
2022-08-21T16:30:28.664Z,96274.97
2022-08-21T16:33:00.421Z,96269.59
2022-08-21T16:35:39.193Z,96267.13
2022-08-21T16:38:06.958Z,96263.47
2022-08-21T16:40:34.723Z,96264.47
2022-08-21T16:43:02.500Z,96261.06
2022-08-21T16:45:33.338Z,96088.91
2022-08-21T16:48:04.478Z,96261.41
2022-08-21T16:50:32.121Z,96260.97
2022-08-21T16:52:59.880Z,96270.16
2022-08-21T16:55:27.635Z,96268.75
2022-08-21T16:57:55.209Z,96268.13
2022-08-21T17:00:23.357Z,96261.47
2022-08-21T17:02:55.253Z,96264.66
2022-08-21T17:08:12.406Z,96263.25
2022-08-21T17:10:40.053Z,96269.84
2022-08-21T17:13:09.635Z,96262.25
2022-08-21T17:15:39.141Z,96260.19
2022-08-21T17:18:09.547Z,96265.72
2022-08-21T17:20:37.202Z,96261.78
2022-08-21T17:23:04.886Z,96259.94
2022-08-21T17:25:39.783Z,96261.63
2022-08-21T17:28:07.724Z,96260.44
2022-08-21T17:30:35.424Z,96264.56
2022-08-21T17:33:03.066Z,96261.75
2022-08-21T17:35:35.367Z,96259.19
2022-08-21T17:38:03.124Z,96270.28
2022-08-21T17:40:36.468Z,96267.91
2022-08-21T17:43:05.724Z,96267.16
2022-08-21T17:45:34.085Z,96038.06
2022-08-21T17:48:05.372Z,96269.13
2022-08-21T17:50:35.221Z,96263.53
2022-08-21T17:53:03.145Z,96273.19
2022-08-21T17:55:32.034Z,96265.69
2022-08-21T17:58:02.210Z,96269.84
2022-08-21T18:00:30.812Z,96274.06
2022-08-21T18:03:03.308Z,96281.03
2022-08-21T18:05:31.202Z,96272.50
2022-08-21T18:08:00.473Z,96275.47
2022-08-21T18:10:28.476Z,96274.03
2022-08-21T18:12:56.443Z,96274.03
2022-08-21T18:15:27.219Z,96270.47
2022-08-21T18:17:55.041Z,96274.91
2022-08-21T18:20:24.661Z,96285.84
2022-08-21T18:22:54.918Z,96282.44
2022-08-21T18:25:25.139Z,96278.44
2022-08-21T18:27:54.791Z,96282.53
2022-08-21T18:30:23.505Z,96282.34
2022-08-21T18:32:54.037Z,96283.78
2022-08-21T18:35:21.761Z,96292.50
2022-08-21T18:37:49.463Z,96292.50
2022-08-21T18:40:18.159Z,96290.25
2022-08-21T18:42:55.007Z,96286.25
2022-08-21T18:45:24.101Z,96293.56
2022-08-21T18:47:52.641Z,96294.53
2022-08-21T18:50:25.025Z,96301.97
2022-08-21T18:52:54.617Z,96289.25
2022-08-21T18:55:23.151Z,96294.63
2022-08-21T18:57:54.051Z,96297.13
2022-08-21T19:00:24.442Z,96302.97
2022-08-21T19:02:53.178Z,96297.75
2022-08-21T19:05:21.124Z,96301.59
2022-08-21T19:07:51.458Z,96305.75
2022-08-21T19:10:28.403Z,96310.75
2022-08-21T19:12:59.594Z,96308.47
2022-08-21T19:15:27.534Z,96313.38
2022-08-21T19:17:56.639Z,96310.47
2022-08-21T19:20:27.987Z,96306.59
2022-08-21T19:23:00.247Z,96317.28
2022-08-21T19:25:33.408Z,96312.78
2022-08-21T19:28:03.723Z,96319.28
2022-08-21T19:30:39.702Z,96309.94
2022-08-21T19:33:08.711Z,96314.41
2022-08-21T19:35:36.666Z,96319.28
2022-08-21T19:38:04.440Z,96326.41
2022-08-21T19:40:32.777Z,96328.44
2022-08-21T19:43:01.158Z,96325.91
2022-08-21T19:45:30.696Z,96326.44
2022-08-21T19:48:01.033Z,96323.66
2022-08-21T19:50:31.842Z,96324.97
2022-08-21T19:53:01.019Z,96335.28
2022-08-21T19:55:30.031Z,96336.56
2022-08-21T19:57:58.028Z,96333.97
2022-08-21T20:00:25.708Z,96337.78
2022-08-21T20:02:55.605Z,96329.66
2022-08-21T20:05:25.191Z,96334.97
2022-08-21T20:08:20.061Z,96340.06
2022-08-21T20:10:49.821Z,96338.09
2022-08-21T20:13:17.806Z,96343.50
2022-08-21T20:15:46.571Z,96339.09
2022-08-21T20:18:15.890Z,96338.88
2022-08-21T20:20:44.001Z,96341.63
2022-08-21T20:23:12.061Z,96343.94
2022-08-21T20:25:39.838Z,96339.09
2022-08-21T20:28:07.623Z,96340.44
2022-08-21T20:30:36.248Z,96339.50
2022-08-21T20:33:03.971Z,96346.50
2022-08-21T20:35:35.144Z,96337.06
2022-08-21T20:38:03.117Z,96340.22
2022-08-21T20:40:37.586Z,96334.25
2022-08-21T20:43:05.549Z,96339.56
2022-08-21T20:45:34.178Z,96338.69
2022-08-21T20:48:03.302Z,96340.34
2022-08-21T20:50:31.478Z,96335.06
2022-08-21T20:53:03.500Z,96340.25
2022-08-21T20:55:32.298Z,96337.78
2022-08-21T20:58:02.507Z,96332.94
2022-08-21T21:00:32.441Z,96332.38
2022-08-21T21:03:02.187Z,96337.91
2022-08-21T21:05:32.796Z,96333.16
2022-08-21T21:08:03.586Z,96328.91
2022-08-21T21:10:34.170Z,96325.97
2022-08-21T21:13:06.618Z,96322.69
2022-08-21T21:15:34.742Z,96326.53
2022-08-21T21:18:05.303Z,96324.03
2022-08-21T21:20:35.486Z,96332.56
2022-08-21T21:23:12.676Z,96325.38
2022-08-21T21:25:41.460Z,96326.28
2022-08-21T21:28:12.829Z,96326.28
2022-08-21T21:30:46.739Z,96326.50
2022-08-21T21:33:31.196Z,96326.06
2022-08-21T21:36:00.470Z,96324.00
2022-08-21T21:38:31.757Z,96334.81
2022-08-21T21:41:05.978Z,96331.31
2022-08-21T21:43:38.788Z,96329.69
2022-08-21T21:46:10.934Z,96328.78
2022-08-21T21:48:46.975Z,96335.47
2022-08-21T21:51:26.951Z,96335.19
2022-08-21T21:54:00.949Z,96333.28
2022-08-21T21:56:32.374Z,96330.34
2022-08-21T21:59:09.942Z,96332.72
2022-08-21T22:01:44.526Z,96334.13
2022-08-21T22:04:17.270Z,96337.75
2022-08-21T22:06:48.556Z,96341.16
2022-08-21T22:09:22.110Z,96334.06
2022-08-21T22:11:58.087Z,96340.75
2022-08-21T22:14:29.115Z,96342.25
2022-08-21T22:16:56.874Z,96342.81
2022-08-21T22:19:25.435Z,96345.66
2022-08-21T22:22:00.798Z,96343.03
2022-08-21T22:24:32.046Z,96346.84
2022-08-21T22:27:01.807Z,96342.41
2022-08-21T22:29:52.615Z,96337.34
2022-08-21T22:32:25.660Z,96344.34
2022-08-21T22:35:03.860Z,96340.25
2022-08-21T22:37:44.646Z,96344.38
2022-08-21T22:40:16.734Z,96344.63
2022-08-21T22:42:44.609Z,96338.38
2022-08-21T22:45:12.566Z,96344.47
2022-08-21T22:47:43.909Z,96337.28
2022-08-21T22:50:28.226Z,96343.88
2022-08-21T22:52:57.992Z,96338.41
2022-08-21T22:55:38.060Z,96337.56
2022-08-21T22:58:09.950Z,96346.16
2022-08-21T23:00:55.680Z,96343.72
2022-08-21T23:03:30.389Z,96344.28
2022-08-21T23:05:59.968Z,96340.09
2022-08-21T23:08:31.827Z,96339.38
2022-08-21T23:11:03.031Z,96343.88
2022-08-21T23:13:39.979Z,96340.50
2022-08-21T23:16:15.748Z,96345.09
2022-08-21T23:18:49.794Z,96337.56
2022-08-21T23:21:19.657Z,96335.09
2022-08-21T23:23:50.432Z,96339.25
2022-08-21T23:26:25.216Z,96342.31
2022-08-21T23:29:03.006Z,96339.75
2022-08-21T23:31:39.533Z,96338.84
2022-08-21T23:34:15.864Z,96335.78
2022-08-21T23:37:14.506Z,96327.59
2022-08-21T23:39:51.490Z,96330.41
2022-08-21T23:42:28.161Z,96332.88
2022-08-21T23:44:56.789Z,96329.16
2022-08-21T23:47:28.825Z,96330.78
2022-08-21T23:50:13.930Z,96330.97
2022-08-21T23:52:48.931Z,96326.38
2022-08-21T23:55:19.436Z,96327.81
2022-08-21T23:57:55.019Z,96330.50
